Warning: Javascript must be enabled to use all the features on this page!


Page Loading - Please Wait...

Click to hideNews Bulletins

Peak Streamflow for the Nation

USGS 14362000 APPLEGATE RIVER NEAR COPPER, OR

Jackson County, Oregon
Hydrologic Unit Code 17100309
Latitude  42°03'50", Longitude 123°06'37" NAD27
Drainage area 225  square miles
Gage datum 1,747.51 feet above NGVD29
Output formats
Table
Graph
Tab-separated file
peakfq (watstore) format
Reselect output format
Water
Year
Date Gage
Height
(feet)
Stream-
flow
(cfs)
1939 1939-03-22 4.28 1,330
1940 1940-02-28 11.84 7,410
1941 1940-12-20 9.26 5,090
1942 1941-12-02 11.66 6,900
1943 1942-12-31 12.85 7,980
1944 1944-05-05 3.98 909
1945 1945-02-08 9.82 5,330
1946 1945-12-28 16.70 12,000
1947 1946-11-18 6.82 2,820
1948 1948-01-06 17.84 13,400
1949 1949-02-22 7.26 3,260
1950 1950-03-17 7.78 3,670
1951 1950-10-29 16.50 11,800
1952 1952-02-01 11.05 6,660
1953 1953-01-18 19.48 15,300
1954 1953-11-23 12.03 7,550
1955 1954-12-31 4.40 1,180
1956 1955-12-21 23.47 20,300
1957 1957-02-26 14.85 11,100
1958 1958-01-29 15.59 11,900
1959 1959-01-12 14.57 10,700
1960 1960-02-08 8.69 4,920
1961 1961-02-10 10.90 7,000
1962 1961-12-20 6.00 2,510
1963 1962-12-02 16.12 12,500
1964 1963-11-08 7.05 3,440
1965 1964-12-22 26.00 29,000
1966 1966-01-06 11.82 8,130
1967 1967-01-28 12.98 9,480
1968 1968-02-23 11.84 8,220
1969 1969-01-13 6.57 3,240
1970 1970-01-22 16.68 13,600
1971 1971-01-17 14.29 10,500
1972 1972-01-22 15.73 12,300
1973 1972-12-22 5.05 1,940
1974 1974-01-15 25.38 29,800
1975 1975-03-18 10.56 6,790
1976 1975-12-04 6.10 3,150
1977 1977-09-28 2.59 857
1978 1977-12-14 10.466 7,050
1979 1979-01-11 7.21 3,450
1980 1980-01-13 11.12 8,050
1981 1980-12-02 5.82 2,1306
1982 1981-12-21 8.51 4,7306
1983 1983-02-22 8.50 4,6406
1984 1983-12-16 8.31 4,4706
1985 1984-11-13 6.83 2,9806
1986 1986-02-18 8.41 4,5106
1987 1987-02-02 5.35 1,6806
1988 1987-12-10 4.92 1,3806
1989 1988-11-23 8.53 4,6406
1990 1990-01-08 4.41 1,0706
1991 1990-10-15 3.02 4076
1992 1991-10-15 3.11 4416
1993 1993-03-19 8.18 4,2506
1994 1993-10-01 3.37 5466
1995 1995-01-13 8.61 4,7206
1996 1996-04-24 7.76 3,8206
1997 1997-01-01 16.23 18,8006
1998 1998-03-23 8.56 6,1406
1999 1998-11-21 6.77 3,9306
2000 2000-02-15 6.37 3,4806
2001 2000-10-04 2.19 3696
2002 2002-01-10 6.11 3,2006
2003 2002-12-29 7.97 5,4006
2004 2003-12-14 5.86 2,9406
2005 2005-05-18 5.19 2,2306
2006 2006-01-01 8.64 5,9206
2007 2006-12-15 6.33 3,1706
2008 2008-05-16 5.70 2,5606
2009 2009-05-18 3.07 7216
2010 2010-06-04 6.15 2,9906
2011 2011-06-14 4.43 1,4706
2012 2012-04-01 5.36 2,2306
2013 2012-12-06 6.29 3,1306
2014 2014-03-11 2.67 5186
2015 2015-02-07 5.25 2,1306
2016 2016-01-18 5.79 2,6406
2017 2017-02-16 7.38 4,3506
2018 2017-11-21 2.81 5676
2019 2019-04-09 6.71 3,5706
2020 2020-01-28 3.27 7756
2021 2021-01-20 2.99 6576
?
  Peak Gage-Height Qualification Codes.
?
  Peak Streamflow Qualification Codes.